Monday, May 30, 2016
12:37 UTC
  |  Log In   |  Register Free
Airport Search:

Fort Smith Regional Airport
(KFSM)

FAA data valid effective Mar 31 2016 - May 26 2016 (unless otherwise noted).

 
 
 
 
 
 
 
 
 
 
 
 
 
 
Current Aviation Weather for KFSM

Weather Summary


The most recent METAR observation for FSM was updated at: 12:53 UTC
METAR for KFSM is not available. Closest METAR is for KJSV
KFSM  (most recent observation was updatred at 30:11 UTC)
301153Z 07003KT 10SM R25/4000VP6000FT FEW120 20/18 A3004 RMK AO2 SLP167 T02000183 10222 20189 51008

KJSV  (22.2 nm SE)   (most recent observation was updated at 30:12 UTC)
301215Z AUTO 00000KT 10SM CLR 19/16 A3006 RMK AO2

KRKR  (22.6 nm NE)   (most recent observation was updated at 30:12 UTC)
301215Z AUTO 00000KT 10SM BKN120 19/17 A3005 RMK AO2 T01900165

TAF for KFSM is not available.
KFSM
301129Z 3012/3112 08003KT P6SM VCSH OVC120 TEMPO 3014/3018 5SM -TSRA BKN030CB FM301800 12006KT P6SM VCTS BKN040CB FM310200 08004KT P6SM BKN250

GlobalAir.com is loading additional information.
 Current Weather at FSM
67.0 F° (19.4 C°)

East winds at 3.5 mph
Pressure:
30.04 in
Humidity:
91%
Wind:
East at 3.5 mph
Dew Point:
64.0 F° (17.8 C°)
Visibility:
10.00 mi
FSM NOAA Radar




Find All Airport Services Find A Hotel Find A Rental Car Find A Golf Course Find A Restaurant $100 Hamburger



Airport Weather Forecast for KFSM

Translated METAR for KFSM (1153 UTC)
METAR:
KFSM 301153Z 07003KT 10SM R25/4000VP6000FT FEW120 20/18 A3004 RMK AO2 SLP167 T02000183 10222 20189 51008
Conditions at:
KFSM (Fort Smith Rgnl, AR) observed 1153 UTC 30 May 2016
Temperature:
20°C (68°F)
Dewpoint:
18°C (64.4°F) [RH = 88.3]
Pressure:
30.04 inches Hg (1017.3 mb)
pressure at sea level is 167 in Hg
Winds:
from the ENE (070 degrees) at 3.5 mph (3 knots: 1.5 m/s)
Visibility:
10 mile(s)
Ceiling:
at least 12,000 feet AGL
Clouds:
Few Clouds at 12,000 feet AGL
Remarks:
site is automated and HAS a precipitation sensor

Translated TAF for KFSM (Fort Smith Rgnl, AR) (1129 UTC)
TAF text:
KFSM 301129Z 3012/3112 08003KT P6SM VCSH OVC120
Forecast period:
Monday May 30 2016 12:00 UTC - Tuesday May 31 2016 12:00 UTC
Forecast type:
FROM: standard forecast or significant change
Winds:
from the E (080 degrees) at 3.5 mph (3 knots: 1.5 m/s)
Visibility:
6 or more mile(s) (9.7+ km)
Ceiling:
12,000 feet AGL
Clouds:
Overcast Skies at 12,000 feet AGL
Weather:
Moderate In Vicinity Shower(s)
TAF text:
3014/3018 5SM -TSRA BKN030CB
Forecast period:
Tuesday May 31 2016 14:00 UTC - Tuesday May 31 2016 18:00 UTC
Forecast type:
FROM: standard forecast or significant change
Winds:
Visibility:
5 mile(s) (8 km)
Ceiling:
Clouds:
Weather:
Light Thunderstorm Rain
TAF text:
FM301800 12006KT P6SM VCTS BKN040CB
Forecast period:
Monday May 30 2016 18:00 UTC - Tuesday May 31 2016 02:00 UTC
Forecast type:
FROM: standard forecast or significant change
Winds:
from the ESE (120 degrees) at 6.9 mph (6 knots: 3.1 m/s)
Visibility:
6 or more mile(s) (9.7+ km)
Ceiling:
Clouds:
Weather:
Moderate In Vicinity Thunderstorm
TAF text:
FM310200 08004KT P6SM BKN250
Forecast period:
Tuesday May 31 2016 02:00 UTC - Tuesday May 31 2016 12:00 UTC
Forecast type:
FROM: standard forecast or significant change
Winds:
from the E (080 degrees) at 4.6 mph (4 knots: 2.1 m/s)
Visibility:
6 or more mile(s) (9.7+ km)
Ceiling:
25,000 feet AGL
Clouds:
Broken Cloud Cover at 25,000 feet AGL
Weather:
no significant weather observed at this time
FBO's on the Field
FBO Company Facility Photos Services Transportation Aviation Fuel Prices: Prices include tax
Catering Weather Repair Courtesy Rental Type 100LL JetA JetA+ MOGAS 8087
 
TAC Air - FSM

This FBO has not yet been rated
FS:Phillips 66
Last Updated: Apr-28
Login to update fuel prices
SS:
Contact TAC Air - FSMMore FBO Information
 
Add another FBO Facility Photos Catering Weather Repair Courtesy Rental Type 100LL JetA JetA+ MOGAS 8087
Services Transportation Aviation Fuel Prices: Prices include tax


model-print
model-print
model-print
model-print